Time,TemperatureF,DewpointF,PressureIn,WindDirection,WindDirectionDegrees,WindSpeedMPH,WindSpeedGustMPH,Humidity,HourlyPrecipIn,Conditions,Clouds,dailyrainin,SolarRadiationWatts/m^2,SoftwareType,DateUTC
2013-08-31 00:01:00,71.1,69.3,29.91,SSW,213,4.0,7.0,94,0.00,,,0.00,0.0,meteohub,2013-08-31 04:01:00,
2013-08-31 00:02:00,71.2,69.4,29.91,SW,232,5.0,7.0,94,0.00,,,0.00,0.0,meteohub,2013-08-31 04:02:00,
2013-08-31 00:03:00,71.2,69.4,29.91,SW,218,1.0,7.0,94,0.00,,,0.00,0.0,meteohub,2013-08-31 04:03:00,
2013-08-31 00:05:00,71.1,69.3,29.91,SSE,163,0.0,7.0,94,0.00,,,0.00,0.0,meteohub,2013-08-31 04:05:00,
2013-08-31 00:10:00,71.2,69.4,29.91,South,190,1.0,7.0,94,0.00,,,0.00,0.0,meteohub,2013-08-31 04:10:00,
2013-08-31 00:15:00,71.2,69.4,29.91,South,189,2.0,6.0,94,0.00,,,0.00,0.0,meteohub,2013-08-31 04:15:00,
2013-08-31 00:20:00,71.2,69.4,29.91,ESE,115,9.0,9.0,94,0.00,,,0.00,0.0,meteohub,2013-08-31 04:20:00,
2013-08-31 00:25:00,71.2,69.4,29.91,WSW,252,0.0,10.0,94,0.00,,,0.00,0.0,meteohub,2013-08-31 04:25:00,
2013-08-31 00:30:00,71.2,69.1,29.91,SW,236,1.0,10.0,93,0.00,,,0.00,0.0,meteohub,2013-08-31 04:30:00,
2013-08-31 00:36:00,71.4,69.3,29.91,SW,229,4.0,9.0,93,0.00,,,0.00,0.0,meteohub,2013-08-31 04:36:00,
2013-08-31 00:41:00,71.4,69.3,29.91,SSW,194,1.0,9.0,93,0.00,,,0.00,0.0,meteohub,2013-08-31 04:41:00,
2013-08-31 00:46:00,71.4,69.3,29.91,South,188,1.0,7.0,93,0.00,,,0.00,0.0,meteohub,2013-08-31 04:46:00,
2013-08-31 00:51:00,71.4,69.3,29.91,SSW,199,2.0,8.0,93,0.00,,,0.00,0.0,meteohub,2013-08-31 04:51:00,
2013-08-31 00:56:00,71.4,69.3,29.91,WSW,240,2.0,8.0,93,0.00,,,0.00,0.0,meteohub,2013-08-31 04:56:00,
2013-08-31 01:01:00,71.4,69.3,29.91,SW,221,0.0,8.0,93,0.00,,,0.00,0.0,meteohub,2013-08-31 05:01:00,
2013-08-31 01:06:00,71.4,69.3,29.90,SW,226,1.0,8.0,93,0.00,,,0.00,0.0,meteohub,2013-08-31 05:06:00,
2013-08-31 01:11:00,71.4,69.3,29.90,WSW,250,4.0,5.0,93,0.00,,,0.00,0.0,meteohub,2013-08-31 05:11:00,
2013-08-31 01:17:00,71.6,69.4,29.90,WSW,254,1.0,7.0,93,0.00,,,0.00,0.0,meteohub,2013-08-31 05:17:00,
2013-08-31 01:22:00,71.6,69.4,29.90,WNW,300,2.0,9.0,93,0.00,,,0.00,0.0,meteohub,2013-08-31 05:22:00,
2013-08-31 01:27:00,71.6,69.4,29.90,South,180,3.0,9.0,93,0.00,,,0.00,0.0,meteohub,2013-08-31 05:27:00,
2013-08-31 01:32:00,71.6,69.4,29.89,SW,236,2.0,10.0,93,0.00,,,0.00,0.0,meteohub,2013-08-31 05:32:00,
2013-08-31 01:37:00,71.6,69.4,29.89,SW,236,1.0,10.0,93,0.00,,,0.00,0.0,meteohub,2013-08-31 05:37:00,
2013-08-31 01:42:00,71.4,69.3,29.89,ESE,110,2.0,10.0,93,0.00,,,0.00,0.0,meteohub,2013-08-31 05:42:00,
2013-08-31 01:47:00,71.4,69.3,29.89,SSE,150,1.0,10.0,93,0.00,,,0.00,0.0,meteohub,2013-08-31 05:47:00,
2013-08-31 01:52:00,71.4,69.6,29.89,West,267,3.0,10.0,94,0.00,,,0.00,0.0,meteohub,2013-08-31 05:52:00,
2013-08-31 01:57:00,71.2,69.1,29.90,SSE,166,1.0,10.0,93,0.00,,,0.00,0.0,meteohub,2013-08-31 05:57:00,
2013-08-31 02:02:00,71.2,69.4,29.90,WNW,290,1.0,10.0,94,0.00,,,0.00,0.0,meteohub,2013-08-31 06:02:00,
2013-08-31 02:07:00,71.2,69.4,29.90,SSE,165,2.0,10.0,94,0.00,,,0.00,0.0,meteohub,2013-08-31 06:07:00,
2013-08-31 02:12:00,71.2,69.4,29.90,North,5,3.0,10.0,94,0.00,,,0.00,0.0,meteohub,2013-08-31 06:12:00,
2013-08-31 02:17:00,71.2,69.4,29.89,WSW,249,2.0,8.0,94,0.00,,,0.00,0.0,meteohub,2013-08-31 06:17:00,
2013-08-31 02:22:00,71.2,69.4,29.90,SSW,212,1.0,11.0,94,0.00,,,0.00,0.0,meteohub,2013-08-31 06:22:00,
2013-08-31 02:27:00,71.2,69.4,29.90,SSW,202,2.0,11.0,94,0.00,,,0.00,0.0,meteohub,2013-08-31 06:27:00,
2013-08-31 02:32:00,71.2,69.4,29.90,West,273,1.0,11.0,94,0.00,,,0.00,0.0,meteohub,2013-08-31 06:32:00,
2013-08-31 02:37:00,71.2,69.4,29.90,SSW,205,2.0,8.0,94,0.00,,,0.00,0.0,meteohub,2013-08-31 06:37:00,
2013-08-31 02:42:00,71.4,69.6,29.89,WSW,257,3.0,8.0,94,0.00,,,0.00,0.0,meteohub,2013-08-31 06:42:00,
2013-08-31 02:47:00,71.4,69.6,29.89,WSW,247,4.0,8.0,94,0.00,,,0.00,0.0,meteohub,2013-08-31 06:47:00,
2013-08-31 02:52:00,71.4,69.6,29.89,SSW,202,0.0,9.0,94,0.00,,,0.00,0.0,meteohub,2013-08-31 06:52:00,
2013-08-31 02:57:00,71.4,69.6,29.89,ESE,111,7.0,9.0,94,0.00,,,0.00,0.0,meteohub,2013-08-31 06:57:00,
2013-08-31 03:02:00,71.4,69.6,29.89,SSW,212,1.0,9.0,94,0.00,,,0.00,0.0,meteohub,2013-08-31 07:02:00,
2013-08-31 03:07:00,71.4,69.6,29.89,SW,214,3.0,8.0,94,0.00,,,0.00,0.0,meteohub,2013-08-31 07:07:00,
2013-08-31 03:12:00,71.4,69.6,29.89,South,188,1.0,9.0,94,0.00,,,0.00,0.0,meteohub,2013-08-31 07:12:00,
2013-08-31 03:17:00,71.4,69.6,29.89,WSW,252,1.0,10.0,94,0.00,,,0.00,0.0,meteohub,2013-08-31 07:17:00,
2013-08-31 03:22:00,71.4,69.6,29.89,West,275,2.0,10.0,94,0.00,,,0.00,0.0,meteohub,2013-08-31 07:22:00,
2013-08-31 03:27:00,71.4,69.6,29.89,WSW,238,1.0,9.0,94,0.00,,,0.00,0.0,meteohub,2013-08-31 07:27:00,
2013-08-31 03:32:00,71.4,69.6,29.88,SSW,209,2.0,10.0,94,0.00,,,0.00,0.0,meteohub,2013-08-31 07:32:00,
2013-08-31 03:37:00,71.4,69.6,29.88,WSW,258,2.0,10.0,94,0.00,,,0.00,0.0,meteohub,2013-08-31 07:37:00,
2013-08-31 03:42:00,71.4,69.6,29.89,SSW,203,1.0,11.0,94,0.00,,,0.00,0.0,meteohub,2013-08-31 07:42:00,
2013-08-31 03:47:00,71.4,69.6,29.89,SSE,161,3.0,11.0,94,0.00,,,0.00,0.0,meteohub,2013-08-31 07:47:00,
2013-08-31 03:52:00,71.4,69.6,29.88,SSW,212,3.0,6.0,94,0.00,,,0.00,0.0,meteohub,2013-08-31 07:52:00,
2013-08-31 03:57:00,71.4,69.6,29.89,West,271,3.0,6.0,94,0.00,,,0.00,0.0,meteohub,2013-08-31 07:57:00,
2013-08-31 04:02:00,71.4,70.0,29.89,SSW,195,2.0,8.0,95,0.00,,,0.00,0.0,meteohub,2013-08-31 08:02:00,
2013-08-31 04:07:00,71.4,70.0,29.88,West,271,3.0,8.0,95,0.00,,,0.00,0.0,meteohub,2013-08-31 08:07:00,
2013-08-31 04:12:00,71.4,69.6,29.88,SE,140,1.0,8.0,94,0.00,,,0.00,0.0,meteohub,2013-08-31 08:12:00,
2013-08-31 04:17:00,71.4,70.0,29.88,South,183,5.0,8.0,95,0.00,,,0.00,0.0,meteohub,2013-08-31 08:17:00,
2013-08-31 04:22:00,71.4,69.6,29.88,SSW,209,0.0,8.0,94,0.00,,,0.00,0.0,meteohub,2013-08-31 08:22:00,
2013-08-31 04:27:00,71.4,69.6,29.88,SSW,212,3.0,10.0,94,0.00,,,0.00,0.0,meteohub,2013-08-31 08:27:00,
2013-08-31 04:32:00,71.4,69.6,29.89,WSW,242,3.0,10.0,94,0.00,,,0.00,0.0,meteohub,2013-08-31 08:32:00,
2013-08-31 04:37:00,71.4,69.6,29.89,SSE,153,2.0,10.0,94,0.00,,,0.00,0.0,meteohub,2013-08-31 08:37:00,
2013-08-31 04:42:00,71.4,69.6,29.89,WSW,237,2.0,12.0,94,0.00,,,0.00,0.0,meteohub,2013-08-31 08:42:00,
2013-08-31 04:47:00,71.2,69.4,29.89,South,184,3.0,12.0,94,0.00,,,0.00,0.0,meteohub,2013-08-31 08:47:00,
2013-08-31 04:52:00,71.2,69.4,29.89,WSW,240,0.0,12.0,94,0.00,,,0.00,0.0,meteohub,2013-08-31 08:52:00,
2013-08-31 04:57:00,71.2,69.4,29.89,South,171,1.0,10.0,94,0.00,,,0.00,0.0,meteohub,2013-08-31 08:57:00,
2013-08-31 05:02:00,71.2,69.4,29.88,ENE,76,2.0,10.0,94,0.00,,,0.00,0.0,meteohub,2013-08-31 09:02:00,
2013-08-31 05:07:00,71.2,69.4,29.89,SSW,207,2.0,8.0,94,0.00,,,0.00,0.0,meteohub,2013-08-31 09:07:00,
2013-08-31 05:12:00,71.2,69.4,29.89,SSW,209,1.0,7.0,94,0.00,,,0.00,0.0,meteohub,2013-08-31 09:12:00,
2013-08-31 05:17:00,71.2,69.4,29.90,South,171,1.0,7.0,94,0.00,,,0.00,0.0,meteohub,2013-08-31 09:17:00,
2013-08-31 05:22:00,71.2,69.4,29.90,SSE,167,1.0,6.0,94,0.00,,,0.00,0.0,meteohub,2013-08-31 09:22:00,
2013-08-31 05:27:00,71.2,69.4,29.89,South,185,4.0,6.0,94,0.00,,,0.00,0.0,meteohub,2013-08-31 09:27:00,
2013-08-31 05:32:00,71.2,69.4,29.89,SSE,161,3.0,6.0,94,0.00,,,0.00,0.0,meteohub,2013-08-31 09:32:00,
2013-08-31 05:37:00,71.2,69.4,29.89,WSW,248,2.0,7.0,94,0.00,,,0.00,0.0,meteohub,2013-08-31 09:37:00,
2013-08-31 05:41:00,71.4,69.6,29.89,SSE,160,1.0,7.0,94,0.00,,,0.00,0.0,meteohub,2013-08-31 09:41:00,
2013-08-31 05:47:00,71.2,69.4,29.89,SW,235,0.0,7.0,94,0.00,,,0.00,0.0,meteohub,2013-08-31 09:47:00,
2013-08-31 05:52:00,71.2,69.4,29.89,SSE,153,2.0,8.0,94,0.00,,,0.00,0.0,meteohub,2013-08-31 09:52:00,
2013-08-31 05:57:00,71.2,69.4,29.89,South,183,1.0,8.0,94,0.00,,,0.00,0.0,meteohub,2013-08-31 09:57:00,
2013-08-31 06:02:00,71.2,69.4,29.89,WSW,246,1.0,7.0,94,0.00,,,0.00,0.0,meteohub,2013-08-31 10:02:00,
2013-08-31 06:07:00,71.2,69.4,29.89,South,190,4.0,7.0,94,0.00,,,0.00,0.0,meteohub,2013-08-31 10:07:00,
2013-08-31 06:12:00,71.2,69.4,29.89,WSW,243,2.0,8.0,94,0.00,,,0.00,0.0,meteohub,2013-08-31 10:12:00,
2013-08-31 06:17:00,71.2,69.4,29.89,SSW,208,1.0,8.0,94,0.00,,,0.00,5.0,meteohub,2013-08-31 10:17:00,
2013-08-31 06:22:00,71.2,69.4,29.90,SSE,153,6.0,8.0,94,0.00,,,0.00,9.0,meteohub,2013-08-31 10:22:00,
2013-08-31 06:27:00,71.2,69.4,29.89,SSW,196,1.0,8.0,94,0.00,,,0.00,16.0,meteohub,2013-08-31 10:27:00,
2013-08-31 06:32:00,71.4,69.6,29.89,WSW,255,2.0,8.0,94,0.00,,,0.00,18.0,meteohub,2013-08-31 10:32:00,
2013-08-31 06:37:00,71.4,69.6,29.89,SW,216,2.0,10.0,94,0.00,,,0.00,21.0,meteohub,2013-08-31 10:37:00,
2013-08-31 06:42:00,71.4,69.6,29.89,SW,218,6.0,10.0,94,0.00,,,0.00,25.0,meteohub,2013-08-31 10:42:00,
2013-08-31 06:47:00,71.4,69.6,29.89,SW,232,1.0,7.0,94,0.00,,,0.00,30.0,meteohub,2013-08-31 10:47:00,
2013-08-31 06:52:00,71.4,69.6,29.89,SW,228,1.0,8.0,94,0.00,,,0.00,39.0,meteohub,2013-08-31 10:52:00,
2013-08-31 06:57:00,71.4,69.6,29.89,West,271,2.0,8.0,94,0.00,,,0.00,46.0,meteohub,2013-08-31 10:57:00,
2013-08-31 07:02:00,71.4,69.6,29.89,South,172,1.0,8.0,94,0.00,,,0.00,56.0,meteohub,2013-08-31 11:02:00,
2013-08-31 07:07:00,71.4,69.6,29.89,SSE,148,2.0,8.0,94,0.00,,,0.00,42.0,meteohub,2013-08-31 11:07:00,
2013-08-31 07:12:00,71.4,69.3,29.89,WNW,288,3.0,9.0,93,0.00,,,0.00,33.0,meteohub,2013-08-31 11:12:00,
2013-08-31 07:17:00,71.6,69.4,29.89,WNW,300,5.0,9.0,93,0.00,,,0.00,40.0,meteohub,2013-08-31 11:17:00,
2013-08-31 07:22:00,71.4,69.3,29.89,West,267,1.0,9.0,93,0.00,,,0.00,40.0,meteohub,2013-08-31 11:22:00,
2013-08-31 07:27:00,71.4,69.3,29.89,South,171,3.0,8.0,93,0.00,,,0.00,40.0,meteohub,2013-08-31 11:27:00,
2013-08-31 07:32:00,71.4,69.3,29.89,SW,233,2.0,7.0,93,0.00,,,0.00,47.0,meteohub,2013-08-31 11:32:00,
2013-08-31 07:37:00,71.6,69.4,29.89,SE,145,1.0,7.0,93,0.00,,,0.00,49.0,meteohub,2013-08-31 11:37:00,
2013-08-31 07:42:00,71.6,69.4,29.89,WSW,238,4.0,9.0,93,0.00,,,0.00,70.0,meteohub,2013-08-31 11:42:00,
2013-08-31 07:47:00,71.8,69.6,29.89,SSW,204,3.0,11.0,93,0.00,,,0.00,90.0,meteohub,2013-08-31 11:47:00,
2013-08-31 07:52:00,71.8,69.3,29.89,SE,137,1.0,11.0,92,0.00,,,0.00,98.0,meteohub,2013-08-31 11:52:00,
2013-08-31 07:57:00,72.0,69.4,29.89,SW,219,4.0,11.0,92,0.00,,,0.00,111.0,meteohub,2013-08-31 11:57:00,
2013-08-31 08:02:00,72.0,69.4,29.88,SSW,209,1.0,8.0,92,0.00,,,0.00,118.0,meteohub,2013-08-31 12:02:00,
2013-08-31 08:07:00,72.1,69.6,29.88,West,261,1.0,10.0,92,0.00,,,0.00,134.0,meteohub,2013-08-31 12:07:00,
2013-08-31 08:12:00,72.1,69.6,29.88,WNW,298,1.0,10.0,92,0.00,,,0.00,142.0,meteohub,2013-08-31 12:12:00,
2013-08-31 08:17:00,72.3,69.8,29.89,WSW,239,3.0,10.0,92,0.00,,,0.00,160.0,meteohub,2013-08-31 12:17:00,
2013-08-31 08:22:00,72.3,69.6,29.89,SW,227,1.0,10.0,91,0.00,,,0.00,204.0,meteohub,2013-08-31 12:22:00,
2013-08-31 08:27:00,72.7,70.0,29.89,WSW,237,2.0,10.0,91,0.00,,,0.00,193.0,meteohub,2013-08-31 12:27:00,
2013-08-31 08:32:00,72.7,70.0,29.89,WNW,303,0.0,10.0,91,0.00,,,0.00,162.0,meteohub,2013-08-31 12:32:00,
2013-08-31 08:37:00,72.7,69.6,29.89,South,173,3.0,9.0,90,0.00,,,0.00,160.0,meteohub,2013-08-31 12:37:00,
2013-08-31 08:42:00,72.7,69.6,29.89,SSW,200,4.0,9.0,90,0.00,,,0.00,172.0,meteohub,2013-08-31 12:42:00,
2013-08-31 08:47:00,72.7,69.6,29.89,South,186,0.0,7.0,90,0.00,,,0.00,190.0,meteohub,2013-08-31 12:47:00,
2013-08-31 08:52:00,72.7,69.6,29.89,South,174,2.0,8.0,90,0.00,,,0.00,171.0,meteohub,2013-08-31 12:52:00,
2013-08-31 08:57:00,72.7,69.6,29.89,SE,140,0.0,8.0,90,0.00,,,0.00,162.0,meteohub,2013-08-31 12:57:00,
2013-08-31 09:02:00,72.5,69.1,29.90,South,188,2.0,6.0,89,0.00,,,0.00,123.0,meteohub,2013-08-31 13:02:00,
2013-08-31 09:07:00,72.3,69.3,29.90,South,180,3.0,12.0,90,0.00,,,0.00,74.0,meteohub,2013-08-31 13:07:00,
2013-08-31 09:12:00,72.3,69.3,29.91,South,184,4.0,12.0,90,0.00,,,0.00,56.0,meteohub,2013-08-31 13:12:00,
2013-08-31 09:17:00,72.1,69.1,29.91,West,265,4.0,9.0,90,0.00,,,0.00,165.0,meteohub,2013-08-31 13:17:00,
2013-08-31 09:22:00,72.1,69.4,29.91,South,182,1.0,10.0,91,0.00,,,0.00,149.0,meteohub,2013-08-31 13:22:00,
2013-08-31 09:27:00,72.3,69.6,29.91,WSW,245,0.0,10.0,91,0.00,,,0.00,160.0,meteohub,2013-08-31 13:27:00,
2013-08-31 09:32:00,72.7,69.6,29.91,NW,324,2.0,10.0,90,0.00,,,0.00,214.0,meteohub,2013-08-31 13:32:00,
2013-08-31 09:37:00,72.9,69.8,29.91,WSW,257,4.0,6.0,90,0.00,,,0.00,244.0,meteohub,2013-08-31 13:37:00,
2013-08-31 09:42:00,73.0,70.0,29.91,SW,215,1.0,6.0,90,0.00,,,0.00,216.0,meteohub,2013-08-31 13:42:00,
2013-08-31 09:47:00,73.0,69.6,29.91,WSW,257,2.0,8.0,89,0.00,,,0.00,214.0,meteohub,2013-08-31 13:47:00,
2013-08-31 09:52:00,73.2,69.8,29.91,WNW,302,1.0,11.0,89,0.00,,,0.00,167.0,meteohub,2013-08-31 13:52:00,
2013-08-31 09:57:00,73.2,69.8,29.91,SSE,152,0.0,11.0,89,0.00,,,0.00,237.0,meteohub,2013-08-31 13:57:00,
2013-08-31 10:02:00,73.6,70.2,29.91,South,182,2.0,9.0,89,0.00,,,0.00,262.0,meteohub,2013-08-31 14:02:00,
2013-08-31 10:07:00,73.6,70.2,29.91,South,183,1.0,7.0,89,0.00,,,0.00,248.0,meteohub,2013-08-31 14:07:00,
2013-08-31 10:12:00,73.9,70.5,29.91,NNW,332,5.0,10.0,89,0.00,,,0.00,316.0,meteohub,2013-08-31 14:12:00,
2013-08-31 10:17:00,73.9,70.5,29.91,SSW,211,6.0,10.0,89,0.00,,,0.00,350.0,meteohub,2013-08-31 14:17:00,
2013-08-31 10:22:00,74.1,70.3,29.91,WSW,249,4.0,10.0,88,0.00,,,0.00,348.0,meteohub,2013-08-31 14:22:00,
2013-08-31 10:27:00,74.5,70.7,29.91,South,190,3.0,8.0,88,0.00,,,0.00,304.0,meteohub,2013-08-31 14:27:00,
2013-08-31 10:32:00,74.5,70.7,29.91,West,273,5.0,8.0,88,0.00,,,0.00,346.0,meteohub,2013-08-31 14:32:00,
2013-08-31 10:37:00,74.7,70.5,29.91,SW,221,3.0,11.0,87,0.00,,,0.00,383.0,meteohub,2013-08-31 14:37:00,
2013-08-31 10:42:00,74.8,71.1,29.90,WSW,255,4.0,11.0,88,0.00,,,0.00,425.0,meteohub,2013-08-31 14:42:00,
2013-08-31 10:47:00,75.0,70.9,29.90,South,190,5.0,9.0,87,0.00,,,0.00,334.0,meteohub,2013-08-31 14:47:00,
2013-08-31 10:52:00,75.2,71.1,29.90,South,176,3.0,8.0,87,0.00,,,0.00,346.0,meteohub,2013-08-31 14:52:00,
2013-08-31 10:57:00,75.4,71.2,29.90,South,182,3.0,8.0,87,0.00,,,0.00,422.0,meteohub,2013-08-31 14:57:00,
2013-08-31 11:02:00,75.6,71.1,29.90,SW,217,1.0,7.0,86,0.00,,,0.00,531.0,meteohub,2013-08-31 15:02:00,
2013-08-31 11:07:00,75.7,71.2,29.90,SW,224,2.0,7.0,86,0.00,,,0.00,410.0,meteohub,2013-08-31 15:07:00,
2013-08-31 11:12:00,75.7,71.2,29.90,SSE,150,4.0,9.0,86,0.00,,,0.00,355.0,meteohub,2013-08-31 15:12:00,
2013-08-31 11:17:00,75.7,71.6,29.90,ENE,65,1.0,10.0,87,0.00,,,0.00,390.0,meteohub,2013-08-31 15:17:00,
2013-08-31 11:22:00,75.7,71.2,29.90,West,270,1.0,10.0,86,0.00,,,0.00,378.0,meteohub,2013-08-31 15:22:00,
2013-08-31 11:27:00,75.9,71.8,29.90,South,184,2.0,10.0,87,0.00,,,0.00,415.0,meteohub,2013-08-31 15:27:00,
2013-08-31 11:32:00,76.1,72.0,29.90,West,259,2.0,8.0,87,0.00,,,0.00,350.0,meteohub,2013-08-31 15:32:00,
2013-08-31 11:37:00,76.3,71.8,29.90,South,172,1.0,8.0,86,0.00,,,0.00,357.0,meteohub,2013-08-31 15:37:00,
2013-08-31 11:42:00,76.5,72.0,29.90,SSW,208,1.0,5.0,86,0.00,,,0.00,418.0,meteohub,2013-08-31 15:42:00,
2013-08-31 11:47:00,76.5,72.0,29.90,South,181,2.0,8.0,86,0.00,,,0.00,439.0,meteohub,2013-08-31 15:47:00,
2013-08-31 11:52:00,76.5,72.0,29.89,SSE,149,4.0,8.0,86,0.00,,,0.00,529.0,meteohub,2013-08-31 15:52:00,
2013-08-31 11:57:00,76.6,71.8,29.89,WSW,254,4.0,11.0,85,0.00,,,0.00,550.0,meteohub,2013-08-31 15:57:00,
2013-08-31 12:02:00,76.8,72.0,29.89,SW,225,3.0,11.0,85,0.00,,,0.00,439.0,meteohub,2013-08-31 16:02:00,
2013-08-31 12:07:00,76.8,72.0,29.89,SSE,154,3.0,7.0,85,0.00,,,0.00,504.0,meteohub,2013-08-31 16:07:00,
2013-08-31 12:12:00,76.8,72.0,29.89,South,175,1.0,9.0,85,0.00,,,0.00,552.0,meteohub,2013-08-31 16:12:00,
2013-08-31 12:17:00,76.8,72.0,29.89,ESE,111,3.0,9.0,85,0.00,,,0.00,482.0,meteohub,2013-08-31 16:17:00,
2013-08-31 12:22:00,77.2,72.0,29.89,South,178,2.0,9.0,84,0.00,,,0.00,515.0,meteohub,2013-08-31 16:22:00,
2013-08-31 12:27:00,77.0,72.1,29.89,SSE,152,1.0,8.0,85,0.00,,,0.00,698.0,meteohub,2013-08-31 16:27:00,
2013-08-31 12:32:00,77.0,72.1,29.89,SW,225,1.0,11.0,85,0.00,,,0.00,459.0,meteohub,2013-08-31 16:32:00,
2013-08-31 12:37:00,76.6,71.4,29.89,SSW,197,1.0,11.0,84,0.00,,,0.00,378.0,meteohub,2013-08-31 16:37:00,
2013-08-31 12:42:00,76.1,71.2,29.89,West,273,1.0,11.0,85,0.00,,,0.00,350.0,meteohub,2013-08-31 16:42:00,
2013-08-31 12:47:00,75.7,71.2,29.89,SW,236,1.0,11.0,86,0.00,,,0.00,399.0,meteohub,2013-08-31 16:47:00,
2013-08-31 12:52:00,75.7,71.6,29.89,East,90,10.0,11.0,87,0.00,,,0.00,348.0,meteohub,2013-08-31 16:52:00,
2013-08-31 12:57:00,75.4,71.2,29.89,South,179,2.0,12.0,87,0.00,,,0.00,506.0,meteohub,2013-08-31 16:57:00,
2013-08-31 13:02:00,75.6,71.8,29.89,SSE,166,1.0,12.0,88,0.00,,,0.00,559.0,meteohub,2013-08-31 17:02:00,
2013-08-31 13:07:00,75.7,72.0,29.89,WSW,242,3.0,12.0,88,0.00,,,0.00,322.0,meteohub,2013-08-31 17:07:00,
2013-08-31 13:12:00,75.6,71.8,29.89,South,190,6.0,10.0,88,0.00,,,0.00,410.0,meteohub,2013-08-31 17:12:00,
2013-08-31 13:17:00,75.6,71.8,29.89,SW,229,1.0,10.0,88,0.00,,,0.00,424.0,meteohub,2013-08-31 17:17:00,
2013-08-31 13:22:00,75.4,71.6,29.88,SW,229,1.0,10.0,88,0.00,,,0.00,332.0,meteohub,2013-08-31 17:22:00,
2013-08-31 13:27:00,75.4,71.6,29.88,West,264,5.0,10.0,88,0.00,,,0.00,397.0,meteohub,2013-08-31 17:27:00,
2013-08-31 13:32:00,75.6,71.8,29.88,SSW,196,3.0,10.0,88,0.00,,,0.00,497.0,meteohub,2013-08-31 17:32:00,
2013-08-31 13:37:00,75.7,72.0,29.88,SW,215,2.0,10.0,88,0.00,,,0.00,659.0,meteohub,2013-08-31 17:37:00,
2013-08-31 13:42:00,75.7,71.6,29.88,SW,217,3.0,12.0,87,0.00,,,0.00,410.0,meteohub,2013-08-31 17:42:00,
2013-08-31 13:47:00,75.9,72.1,29.88,SSW,200,4.0,12.0,88,0.00,,,0.00,352.0,meteohub,2013-08-31 17:47:00,
2013-08-31 13:52:00,75.9,72.1,29.88,SSW,202,3.0,11.0,88,0.00,,,0.00,510.0,meteohub,2013-08-31 17:52:00,
2013-08-31 13:57:00,76.3,72.5,29.88,SSW,203,4.0,12.0,88,0.00,,,0.00,608.0,meteohub,2013-08-31 17:57:00,
2013-08-31 14:02:00,76.6,72.5,29.88,South,184,6.0,14.0,87,0.00,,,0.00,592.0,meteohub,2013-08-31 18:02:00,
2013-08-31 14:07:00,76.8,72.3,29.88,South,171,8.0,14.0,86,0.00,,,0.00,875.0,meteohub,2013-08-31 18:07:00,
2013-08-31 14:12:00,77.2,72.3,29.88,SE,144,7.0,14.0,85,0.00,,,0.00,881.0,meteohub,2013-08-31 18:12:00,
2013-08-31 14:17:00,77.0,72.5,29.88,SW,221,3.0,10.0,86,0.00,,,0.00,601.0,meteohub,2013-08-31 18:17:00,
2013-08-31 14:22:00,76.6,72.1,29.88,SW,229,3.0,11.0,86,0.00,,,0.00,480.0,meteohub,2013-08-31 18:22:00,
2013-08-31 14:27:00,76.6,72.5,29.87,WSW,254,1.0,11.0,87,0.00,,,0.00,647.0,meteohub,2013-08-31 18:27:00,
2013-08-31 14:32:00,76.5,72.0,29.87,SSW,192,3.0,11.0,86,0.00,,,0.00,526.0,meteohub,2013-08-31 18:32:00,
2013-08-31 14:37:00,76.5,72.3,29.87,SSW,198,5.0,11.0,87,0.00,,,0.00,589.0,meteohub,2013-08-31 18:37:00,
2013-08-31 14:42:00,76.3,72.1,29.87,SE,143,4.0,12.0,87,0.00,,,0.00,504.0,meteohub,2013-08-31 18:42:00,
2013-08-31 14:47:00,76.1,72.0,29.87,SE,146,1.0,14.0,87,0.00,,,0.00,431.0,meteohub,2013-08-31 18:47:00,
2013-08-31 14:52:00,76.3,72.1,29.87,WNW,283,1.0,14.0,87,0.00,,,0.00,563.0,meteohub,2013-08-31 18:52:00,
2013-08-31 14:57:00,76.5,72.3,29.87,SSE,163,2.0,10.0,87,0.00,,,0.00,563.0,meteohub,2013-08-31 18:57:00,
2013-08-31 15:02:00,76.5,72.3,29.87,SSW,209,2.0,10.0,87,0.00,,,0.00,448.0,meteohub,2013-08-31 19:02:00,
2013-08-31 15:07:00,76.6,72.5,29.87,SW,229,1.0,10.0,87,0.00,,,0.00,526.0,meteohub,2013-08-31 19:07:00,
2013-08-31 15:12:00,76.8,72.3,29.87,South,175,1.0,10.0,86,0.00,,,0.00,348.0,meteohub,2013-08-31 19:12:00,
2013-08-31 15:17:00,77.0,72.5,29.87,South,171,6.0,9.0,86,0.00,,,0.00,353.0,meteohub,2013-08-31 19:17:00,
2013-08-31 15:22:00,76.8,72.3,29.87,ESE,108,2.0,13.0,86,0.00,,,0.00,631.0,meteohub,2013-08-31 19:22:00,
2013-08-31 15:27:00,76.8,72.3,29.87,SW,236,2.0,13.0,86,0.00,,,0.00,654.0,meteohub,2013-08-31 19:27:00,
2013-08-31 15:32:00,77.0,72.5,29.87,South,184,2.0,13.0,86,0.00,,,0.00,619.0,meteohub,2013-08-31 19:32:00,
2013-08-31 15:37:00,77.2,72.3,29.87,WNW,288,1.0,10.0,85,0.00,,,0.00,780.0,meteohub,2013-08-31 19:37:00,
2013-08-31 15:42:00,77.4,72.5,29.87,SSW,193,3.0,11.0,85,0.00,,,0.00,661.0,meteohub,2013-08-31 19:42:00,
2013-08-31 15:47:00,77.5,72.3,29.86,SSE,167,4.0,14.0,84,0.00,,,0.00,373.0,meteohub,2013-08-31 19:47:00,
2013-08-31 15:52:00,77.2,72.3,29.86,SSW,206,3.0,14.0,85,0.00,,,0.00,399.0,meteohub,2013-08-31 19:52:00,
2013-08-31 15:57:00,77.2,72.3,29.86,SSW,205,7.0,14.0,85,0.00,,,0.00,740.0,meteohub,2013-08-31 19:57:00,
2013-08-31 16:02:00,77.4,72.5,29.86,SSW,209,3.0,11.0,85,0.00,,,0.00,411.0,meteohub,2013-08-31 20:02:00,
2013-08-31 16:07:00,77.2,72.3,29.86,South,175,3.0,10.0,85,0.00,,,0.00,325.0,meteohub,2013-08-31 20:07:00,
2013-08-31 16:12:00,76.6,72.1,29.86,SE,138,2.0,14.0,86,0.00,,,0.00,397.0,meteohub,2013-08-31 20:12:00,
2013-08-31 16:17:00,76.5,72.0,29.86,SSW,192,2.0,14.0,86,0.00,,,0.00,292.0,meteohub,2013-08-31 20:17:00,
2013-08-31 16:22:00,76.3,72.1,29.87,South,188,3.0,14.0,87,0.00,,,0.00,355.0,meteohub,2013-08-31 20:22:00,
2013-08-31 16:28:00,75.9,71.8,29.86,WSW,240,7.0,12.0,87,0.00,,,0.00,243.0,meteohub,2013-08-31 20:28:00,
2013-08-31 16:33:00,75.7,72.0,29.86,SW,233,2.0,12.0,88,0.00,,,0.00,308.0,meteohub,2013-08-31 20:33:00,
2013-08-31 16:38:00,75.6,71.8,29.86,SW,225,5.0,10.0,88,0.00,,,0.00,181.0,meteohub,2013-08-31 20:38:00,
2013-08-31 16:43:00,75.4,71.6,29.86,SSE,167,0.0,10.0,88,0.00,,,0.00,167.0,meteohub,2013-08-31 20:43:00,
2013-08-31 16:48:00,75.2,71.4,29.86,South,171,2.0,8.0,88,0.00,,,0.00,276.0,meteohub,2013-08-31 20:48:00,
2013-08-31 16:53:00,75.4,72.0,29.86,SE,134,2.0,9.0,89,0.00,,,0.00,323.0,meteohub,2013-08-31 20:53:00,
2013-08-31 16:58:00,75.4,72.0,29.86,WSW,258,2.0,9.0,89,0.00,,,0.00,359.0,meteohub,2013-08-31 20:58:00,
2013-08-31 17:03:00,75.6,72.1,29.86,West,265,2.0,9.0,89,0.00,,,0.00,241.0,meteohub,2013-08-31 21:03:00,
2013-08-31 17:09:00,75.6,71.8,29.86,SE,133,4.0,8.0,88,0.00,,,0.00,308.0,meteohub,2013-08-31 21:09:00,
2013-08-31 17:14:00,75.6,71.8,29.86,West,266,2.0,8.0,88,0.00,,,0.00,179.0,meteohub,2013-08-31 21:14:00,
2013-08-31 17:19:00,75.4,71.6,29.86,SSW,197,4.0,8.0,88,0.00,,,0.00,127.0,meteohub,2013-08-31 21:19:00,
2013-08-31 17:24:00,75.2,71.4,29.86,SW,215,2.0,8.0,88,0.00,,,0.00,100.0,meteohub,2013-08-31 21:24:00,
2013-08-31 17:29:00,74.8,71.4,29.86,SSW,193,3.0,7.0,89,0.00,,,0.00,97.0,meteohub,2013-08-31 21:29:00,
2013-08-31 17:34:00,74.8,71.4,29.86,SSW,212,2.0,11.0,89,0.00,,,0.00,141.0,meteohub,2013-08-31 21:34:00,
2013-08-31 17:39:00,74.7,71.2,29.86,SSE,159,0.0,11.0,89,0.00,,,0.00,162.0,meteohub,2013-08-31 21:39:00,
2013-08-31 17:45:00,74.8,71.8,29.86,SW,236,3.0,8.0,90,0.00,,,0.00,183.0,meteohub,2013-08-31 21:45:00,
2013-08-31 17:50:00,74.8,71.8,29.86,WSW,250,1.0,8.0,90,0.00,,,0.00,171.0,meteohub,2013-08-31 21:50:00,
2013-08-31 17:55:00,74.8,71.4,29.86,ESE,114,2.0,8.0,89,0.00,,,0.00,128.0,meteohub,2013-08-31 21:55:00,
2013-08-31 18:00:00,74.8,71.4,29.86,SSE,156,2.0,8.0,89,0.00,,,0.00,120.0,meteohub,2013-08-31 22:00:00,
2013-08-31 18:05:00,74.7,71.6,29.86,South,186,4.0,7.0,90,0.00,,,0.00,111.0,meteohub,2013-08-31 22:05:00,
2013-08-31 18:10:00,74.5,71.4,29.86,South,189,1.0,7.0,90,0.00,,,0.00,93.0,meteohub,2013-08-31 22:10:00,
2013-08-31 18:15:00,74.5,71.4,29.86,SE,141,1.0,7.0,90,0.00,,,0.00,83.0,meteohub,2013-08-31 22:15:00,
2013-08-31 18:20:00,74.3,71.2,29.86,WNW,291,1.0,7.0,90,0.00,,,0.00,81.0,meteohub,2013-08-31 22:20:00,
2013-08-31 18:25:00,74.3,71.2,29.86,SW,217,3.0,6.0,90,0.00,,,0.00,79.0,meteohub,2013-08-31 22:25:00,
2013-08-31 18:31:00,74.1,71.2,29.86,ESE,120,2.0,8.0,91,0.00,,,0.00,79.0,meteohub,2013-08-31 22:31:00,
2013-08-31 18:36:00,74.1,71.2,29.86,SSW,213,2.0,8.0,91,0.00,,,0.00,72.0,meteohub,2013-08-31 22:36:00,
2013-08-31 18:41:00,74.1,71.2,29.86,South,189,2.0,8.0,91,0.00,,,0.00,62.0,meteohub,2013-08-31 22:41:00,
2013-08-31 18:46:00,73.9,71.1,29.86,SW,215,2.0,6.0,91,0.00,,,0.00,39.0,meteohub,2013-08-31 22:46:00,
2013-08-31 18:51:00,73.9,71.1,29.86,SSW,206,1.0,7.0,91,0.00,,,0.00,25.0,meteohub,2013-08-31 22:51:00,
2013-08-31 18:56:00,73.8,70.9,29.86,SSW,205,1.0,7.0,91,0.00,,,0.00,16.0,meteohub,2013-08-31 22:56:00,
2013-08-31 19:01:00,73.6,70.7,29.86,SW,219,0.0,7.0,91,0.00,,,0.00,11.0,meteohub,2013-08-31 23:01:00,
2013-08-31 19:06:00,73.4,70.9,29.86,SW,232,0.0,8.0,92,0.00,,,0.00,7.0,meteohub,2013-08-31 23:06:00,
2013-08-31 19:11:00,73.2,70.7,29.86,SW,224,2.0,8.0,92,0.00,,,0.00,5.0,meteohub,2013-08-31 23:11:00,
2013-08-31 19:16:00,73.2,70.7,29.86,SW,236,1.0,8.0,92,0.00,,,0.00,0.0,meteohub,2013-08-31 23:16:00,
2013-08-31 19:21:00,73.0,70.5,29.86,SSW,213,2.0,6.0,92,0.00,,,0.00,0.0,meteohub,2013-08-31 23:21:00,
2013-08-31 19:26:00,73.0,70.5,29.86,WSW,246,0.0,7.0,92,0.00,,,0.00,0.0,meteohub,2013-08-31 23:26:00,
2013-08-31 19:31:00,73.0,70.5,29.86,SSW,198,2.0,9.0,92,0.00,,,0.00,0.0,meteohub,2013-08-31 23:31:00,
2013-08-31 19:36:00,73.0,70.9,29.86,SSW,197,0.0,9.0,93,0.00,,,0.00,0.0,meteohub,2013-08-31 23:36:00,
2013-08-31 19:41:00,72.9,70.7,29.86,SW,226,1.0,9.0,93,0.00,,,0.00,0.0,meteohub,2013-08-31 23:41:00,
2013-08-31 19:46:00,73.0,70.9,29.87,SW,227,0.0,7.0,93,0.00,,,0.00,0.0,meteohub,2013-08-31 23:46:00,
2013-08-31 19:52:00,73.0,70.9,29.87,SW,217,2.0,7.0,93,0.00,,,0.00,0.0,meteohub,2013-08-31 23:52:00,
2013-08-31 19:57:00,73.0,70.9,29.87,WSW,256,1.0,8.0,93,0.00,,,0.00,0.0,meteohub,2013-08-31 23:57:00,
2013-08-31 20:02:00,73.0,70.9,29.87,South,178,0.0,8.0,93,0.00,,,0.00,0.0,meteohub,2013-09-01 00:02:00,
2013-08-31 20:07:00,72.9,70.7,29.87,ENE,78,4.0,8.0,93,0.00,,,0.00,0.0,meteohub,2013-09-01 00:07:00,
2013-08-31 20:12:00,72.9,70.7,29.87,WSW,248,3.0,8.0,93,0.00,,,0.00,0.0,meteohub,2013-09-01 00:12:00,
2013-08-31 20:17:00,72.9,70.7,29.87,South,184,0.0,9.0,93,0.00,,,0.00,0.0,meteohub,2013-09-01 00:17:00,
2013-08-31 20:22:00,72.9,70.7,29.87,SSW,204,0.0,9.0,93,0.00,,,0.00,0.0,meteohub,2013-09-01 00:22:00,
2013-08-31 20:27:00,72.9,70.7,29.87,SSW,198,3.0,10.0,93,0.00,,,0.00,0.0,meteohub,2013-09-01 00:27:00,
2013-08-31 20:32:00,72.9,70.7,29.87,SSW,213,2.0,10.0,93,0.00,,,0.00,0.0,meteohub,2013-09-01 00:32:00,
2013-08-31 20:37:00,72.9,70.7,29.86,WNW,288,2.0,9.0,93,0.00,,,0.00,0.0,meteohub,2013-09-01 00:37:00,
2013-08-31 20:42:00,72.9,70.7,29.86,West,263,1.0,8.0,93,0.00,,,0.00,0.0,meteohub,2013-09-01 00:42:00,
2013-08-31 20:47:00,73.0,70.5,29.87,WSW,258,1.0,8.0,92,0.00,,,0.00,0.0,meteohub,2013-09-01 00:47:00,
2013-08-31 20:52:00,73.0,70.5,29.87,South,171,4.0,8.0,92,0.00,,,0.00,0.0,meteohub,2013-09-01 00:52:00,
2013-08-31 20:57:00,73.0,70.5,29.87,SSW,202,0.0,7.0,92,0.00,,,0.00,0.0,meteohub,2013-09-01 00:57:00,
2013-08-31 21:02:00,73.0,70.5,29.88,WNW,292,1.0,9.0,92,0.00,,,0.00,0.0,meteohub,2013-09-01 01:02:00,
2013-08-31 21:07:00,73.0,70.5,29.88,SSW,211,2.0,9.0,92,0.00,,,0.00,0.0,meteohub,2013-09-01 01:07:00,
2013-08-31 21:12:00,73.0,70.3,29.88,SW,224,6.0,6.0,91,0.00,,,0.00,0.0,meteohub,2013-09-01 01:12:00,
2013-08-31 21:17:00,73.0,70.3,29.88,SSW,198,2.0,6.0,91,0.00,,,0.00,0.0,meteohub,2013-09-01 01:17:00,
2013-08-31 21:22:00,73.0,70.3,29.87,South,186,0.0,8.0,91,0.00,,,0.00,0.0,meteohub,2013-09-01 01:22:00,
2013-08-31 21:27:00,73.2,70.5,29.88,SSW,200,4.0,11.0,91,0.00,,,0.00,0.0,meteohub,2013-09-01 01:27:00,
2013-08-31 21:32:00,73.2,70.5,29.88,SSW,194,2.0,11.0,91,0.00,,,0.00,0.0,meteohub,2013-09-01 01:32:00,
2013-08-31 21:37:00,73.2,70.5,29.88,ESE,118,4.0,11.0,91,0.00,,,0.00,0.0,meteohub,2013-09-01 01:37:00,
2013-08-31 21:42:00,73.2,70.5,29.88,WSW,256,2.0,8.0,91,0.00,,,0.00,0.0,meteohub,2013-09-01 01:42:00,
2013-08-31 21:47:00,73.4,70.5,29.88,SSW,213,3.0,9.0,91,0.00,,,0.00,0.0,meteohub,2013-09-01 01:47:00,
2013-08-31 21:52:00,73.4,70.5,29.88,SW,236,1.0,9.0,91,0.00,,,0.00,0.0,meteohub,2013-09-01 01:52:00,
2013-08-31 21:57:00,73.6,70.5,29.88,SW,221,2.0,13.0,90,0.00,,,0.00,0.0,meteohub,2013-09-01 01:57:00,
2013-08-31 22:02:00,73.4,70.3,29.88,SSW,192,2.0,13.0,90,0.00,,,0.00,0.0,meteohub,2013-09-01 02:02:00,
2013-08-31 22:07:00,73.4,70.3,29.88,West,263,0.0,13.0,90,0.00,,,0.00,0.0,meteohub,2013-09-01 02:07:00,
2013-08-31 22:12:00,73.4,70.5,29.88,SW,223,2.0,10.0,91,0.00,,,0.00,0.0,meteohub,2013-09-01 02:12:00,
2013-08-31 22:17:00,73.4,70.5,29.89,SSE,155,2.0,10.0,91,0.00,,,0.00,0.0,meteohub,2013-09-01 02:17:00,
2013-08-31 22:22:00,73.2,70.5,29.89,SSW,213,3.0,8.0,91,0.00,,,0.00,0.0,meteohub,2013-09-01 02:22:00,
2013-08-31 22:27:00,73.2,70.5,29.89,South,171,0.0,8.0,91,0.00,,,0.00,0.0,meteohub,2013-09-01 02:27:00,
2013-08-31 22:32:00,73.2,70.5,29.89,SSW,194,3.0,8.0,91,0.00,,,0.00,0.0,meteohub,2013-09-01 02:32:00,
2013-08-31 22:37:00,73.2,70.5,29.89,South,180,4.0,9.0,91,0.00,,,0.00,0.0,meteohub,2013-09-01 02:37:00,
2013-08-31 22:42:00,73.2,70.5,29.89,SSW,208,0.0,11.0,91,0.00,,,0.00,0.0,meteohub,2013-09-01 02:42:00,
2013-08-31 22:47:00,73.2,70.5,29.88,SW,220,4.0,11.0,91,0.00,,,0.00,0.0,meteohub,2013-09-01 02:47:00,
2013-08-31 22:52:00,73.0,70.5,29.88,WNW,282,2.0,11.0,92,0.00,,,0.00,0.0,meteohub,2013-09-01 02:52:00,
2013-08-31 22:57:00,73.0,70.5,29.88,ENE,65,2.0,12.0,92,0.00,,,0.00,0.0,meteohub,2013-09-01 02:57:00,
2013-08-31 23:02:00,73.0,70.5,29.88,SW,223,3.0,12.0,92,0.00,,,0.00,0.0,meteohub,2013-09-01 03:02:00,
2013-08-31 23:07:00,72.9,70.3,29.89,SW,218,0.0,12.0,92,0.00,,,0.00,0.0,meteohub,2013-09-01 03:07:00,
2013-08-31 23:12:00,72.9,70.7,29.89,SW,234,9.0,9.0,93,0.00,,,0.00,0.0,meteohub,2013-09-01 03:12:00,
2013-08-31 23:17:00,72.9,70.7,29.89,WSW,250,0.0,9.0,93,0.00,,,0.00,0.0,meteohub,2013-09-01 03:17:00,
2013-08-31 23:22:00,72.9,70.7,29.89,SW,230,3.0,10.0,93,0.00,,,0.00,0.0,meteohub,2013-09-01 03:22:00,
2013-08-31 23:27:00,72.9,70.7,29.89,SSW,211,2.0,10.0,93,0.00,,,0.00,0.0,meteohub,2013-09-01 03:27:00,
2013-08-31 23:32:00,72.9,70.7,29.89,SW,236,1.0,10.0,93,0.00,,,0.00,0.0,meteohub,2013-09-01 03:32:00,
2013-08-31 23:37:00,72.9,70.7,29.89,SW,228,0.0,7.0,93,0.00,,,0.00,0.0,meteohub,2013-09-01 03:37:00,
2013-08-31 23:43:00,72.9,70.7,29.89,WSW,240,1.0,7.0,93,0.00,,,0.00,0.0,meteohub,2013-09-01 03:43:00,
2013-08-31 23:48:00,72.9,70.7,29.89,SSW,196,0.0,6.0,93,0.00,,,0.00,0.0,meteohub,2013-09-01 03:48:00,
2013-08-31 23:53:00,72.9,71.1,29.89,SSW,210,1.0,9.0,94,0.00,,,0.00,0.0,meteohub,2013-09-01 03:53:00,
2013-08-31 23:58:00,72.9,71.1,29.89,South,173,1.0,9.0,94,0.00,,,0.00,0.0,meteohub,2013-09-01 03:58:00,